Santa Cruz, California
Current Conditions -  °F | °C
As of 7:48 AM on Saturday 25 Oct 2014 (Local Time) from KWVI Reporting Station
Moderate Rain Moderate Rain  
Wind Chill: 57°   Ceiling: 1900
Heat Index: 57°   Visibility: 2mi
Dew Point: 57°   Wind: 3mph
Humidity: 100%   Direction: 190°S
Pressure: 30.03"   Gusts: NA
Location:  36.97°N, 122.03°W
Report Text: KWVI 251448Z AUTO 19003KT 2SM RA BR SCT010 OVC019 14/14 A3003 RMK AO2 P0015
Loading
Personal Weather Stations






























Interactive Weather Map
Tropical Storm Tracking
New forecast layout! Learn more

10-Day Weather Forecast

Advertisements
Track Severe Weather on mobile